Terminal Aerodrome Forecast
Issued by NWS

Home | Current Version | Previous Version | Text Only | Print | Product List | Glossary On
Versions: 1 2 3 4 5 6 7 8 9 10 11 12 13
000
FTUS46 KLOX 041100
TAFOXR
TAF
KOXR 041124Z 0412/0512 05008KT P6SM SKC
     FM041500 06012G20KT P6SM SKC
     FM042100 30010KT P6SM SKC
     FM050300 VRB03KT P6SM SKC
     FM050900 06008KT P6SM SKC=

USA.gov is the U.S. government's official web portal to all federal, state and local government web resources and services.